TimeCST,TemperatureF,Dew PointF,Humidity,Sea Level PressureIn,VisibilityMPH,Wind Direction,Wind SpeedMPH,Gust SpeedMPH,PrecipitationIn,Events,Conditions,WindDirDegrees,DateUTC
12:53 AM,37.9,32.0,79,29.73,10.0,West,4.6,-,N/A,,Overcast,280,2012-12-17 06:53:00
1:53 AM,37.9,32.0,79,29.72,10.0,WNW,3.5,-,N/A,,Overcast,290,2012-12-17 07:53:00
2:53 AM,37.9,32.0,79,29.73,10.0,WSW,4.6,-,N/A,,Overcast,240,2012-12-17 08:53:00
3:53 AM,37.0,32.0,82,29.73,10.0,West,6.9,-,N/A,,Overcast,270,2012-12-17 09:53:00
4:53 AM,37.0,30.9,79,29.73,9.0,West,4.6,-,N/A,,Overcast,270,2012-12-17 10:53:00
5:53 AM,37.0,30.9,79,29.74,8.0,WNW,5.8,-,N/A,,Overcast,300,2012-12-17 11:53:00
6:53 AM,36.0,28.9,76,29.74,9.0,NW,6.9,-,N/A,,Overcast,310,2012-12-17 12:53:00
7:53 AM,35.1,28.0,76,29.73,8.0,NW,5.8,-,N/A,,Overcast,310,2012-12-17 13:53:00
8:53 AM,35.1,28.0,76,29.73,8.0,Calm,Calm,-,N/A,,Overcast,0,2012-12-17 14:53:00
9:53 AM,35.1,28.0,76,29.74,8.0,West,5.8,-,N/A,,Overcast,280,2012-12-17 15:53:00
10:53 AM,36.0,27.0,70,29.73,8.0,NNW,5.8,-,N/A,,Overcast,330,2012-12-17 16:53:00
11:53 AM,36.0,27.0,70,29.71,8.0,WNW,5.8,-,N/A,,Overcast,300,2012-12-17 17:53:00
12:53 PM,36.0,27.0,70,29.70,8.0,WNW,3.5,-,N/A,,Overcast,300,2012-12-17 18:53:00
1:53 PM,36.0,27.0,70,29.69,9.0,WNW,4.6,-,N/A,,Overcast,300,2012-12-17 19:53:00
2:53 PM,36.0,27.0,70,29.69,9.0,NNW,5.8,-,N/A,,Overcast,330,2012-12-17 20:53:00
3:53 PM,34.0,27.0,75,29.69,6.0,NW,6.9,-,N/A,,Haze,320,2012-12-17 21:53:00
6:53 PM,28.9,24.1,82,29.72,8.0,NNW,4.6,-,N/A,,Clear,330,2012-12-18 00:53:00
7:53 PM,28.0,23.0,81,29.72,8.0,Calm,Calm,-,N/A,,Clear,0,2012-12-18 01:53:00
8:53 PM,27.0,23.0,85,29.73,9.0,NW,3.5,-,N/A,,Clear,320,2012-12-18 02:53:00
9:53 PM,27.0,21.9,81,29.75,9.0,NW,3.5,-,N/A,,Mostly Cloudy,320,2012-12-18 03:53:00
10:25 PM,26.6,23.0,86,29.73,8.0,NNW,3.5,-,N/A,,Overcast,330,2012-12-18 04:25:00
10:53 PM,28.0,23.0,81,29.76,8.0,Calm,Calm,-,N/A,,Overcast,0,2012-12-18 04:53:00
11:53 PM,27.0,23.0,85,29.75,8.0,North,3.5,-,N/A,,Overcast,360,2012-12-18 05:53:00